»·PEaware :: AAL1622 KSJC-KSNA

AAL1622 :: KSJC-KSNA

FLIGHT INFORMATION

Flight Status: Arrived
Operator:
American Airlines
More flights by this operator :: More flights under this callsign
Pilot: Dave P. (45)
Aircraft: BOEING 737-800
(B738)
More flights by this aircraft type
Origin: KSJC Mineta San Jose Intl
United States
Destination: KSNA John Wayne-Orange Co
United States
More flights between these airports :: More routes between these airports
Route: TECKY3 EBAYE BURGL FLW GOONA OHSEA1
File this flight plan on PilotEdge
Remarks: PBN / A1B1C1D1S1S2 DOF / 181125 REG / N738PM EET / KZAK0017 KZLA0022 OPR / AAL PER / D RMK / TCAS SIMBRIEF
Altitude:
(Current/Filed)
33,000ft
Speed:
(Current/Filed)
450kts
Departed: 25-Nov-18 11:18 AM
Arrived: 25-Nov-18 12:17 PM
Distance/Time
Traveled:
297nm/0:59
Distance/Time
To Go:
Arrived

Flight Plot

Page will automatically refresh every two minutes.

Flight plan parsing failed; only flown route is shown


Map Options




Map Legend


Flown Route
Filed Route
Departure Airport
Arrival Airport
Navaid (VOR, NDB)
Fix

Horizontal Profiles

Position Reports

Time Latitude Longitude Heading Altitude Ground
Speed
25-Nov-18 11:01 37.371050 -121.931588 56 70ft 0kts
25-Nov-18 11:02 37.371050 -121.931588 56 70ft 0kts
25-Nov-18 11:03 37.371050 -121.931588 56 70ft 0kts
25-Nov-18 11:04 37.371050 -121.931588 56 70ft 0kts
25-Nov-18 11:05 37.371050 -121.931588 56 70ft 0kts
25-Nov-18 11:06 37.371050 -121.931588 56 70ft 0kts
25-Nov-18 11:07 37.371050 -121.931588 56 70ft 0kts
25-Nov-18 11:08 37.371050 -121.931588 56 70ft 0kts
25-Nov-18 11:09 37.371050 -121.931588 56 70ft 0kts
25-Nov-18 11:10 37.371043 -121.931602 56 70ft 1kts
25-Nov-18 11:11 37.370731 -121.932182 55 70ft 0kts
25-Nov-18 11:12 37.370731 -121.932182 55 70ft 0kts
25-Nov-18 11:13 37.370732 -121.932181 55 70ft 0kts
25-Nov-18 11:14 37.370732 -121.932180 55 70ft 0kts
25-Nov-18 11:15 37.371637 -121.933886 248 70ft 8kts
25-Nov-18 11:16 37.367676 -121.930285 136 70ft 21kts
25-Nov-18 11:17 37.363277 -121.925259 138 70ft 23kts
25-Nov-18 11:18 37.358854 -121.920343 138 70ft 26kts
25-Nov-18 11:19 37.354000 -121.915065 139 70ft 11kts
25-Nov-18 11:20 37.353319 -121.915219 227 70ft 0kts
25-Nov-18 11:21 37.356752 -121.920180 318 70ft 89kts
25-Nov-18 11:22 37.394708 -121.961524 319 2238ft 183kts
25-Nov-18 11:23 37.438891 -121.948845 61 3731ft 252kts
25-Nov-18 11:24 37.392220 -121.871424 140 6433ft 280kts
25-Nov-18 11:25 37.345806 -121.811003 132 9040ft 297kts
25-Nov-18 11:26 37.271004 -121.721719 137 11505ft 357kts
25-Nov-18 11:27 37.206065 -121.648653 137 13406ft 387kts
25-Nov-18 11:28 37.123908 -121.556105 137 16277ft 405kts
25-Nov-18 11:29 37.037864 -121.460278 138 18838ft 423kts
25-Nov-18 11:30 36.947429 -121.364410 139 19256ft 428kts
25-Nov-18 11:31 36.855240 -121.266631 138 21636ft 441kts
25-Nov-18 11:32 36.760235 -121.165423 138 23657ft 456kts
25-Nov-18 11:33 36.661739 -121.061504 138 25465ft 470kts
25-Nov-18 11:34 36.560127 -120.956112 139 27086ft 482kts
25-Nov-18 11:35 36.454663 -120.849373 140 28549ft 492kts
25-Nov-18 11:36 36.348640 -120.742305 140 30339ft 489kts
25-Nov-18 11:37 36.244000 -120.636353 141 32145ft 483kts
25-Nov-18 11:38 36.139576 -120.531282 141 33154ft 483kts
25-Nov-18 11:39 36.036386 -120.427612 142 33161ft 476kts
25-Nov-18 11:40 35.933591 -120.325106 143 33159ft 473kts
25-Nov-18 11:41 35.828269 -120.229139 151 33158ft 470kts
25-Nov-18 11:42 35.716255 -120.145498 150 33153ft 470kts
25-Nov-18 11:43 35.598558 -120.078529 164 33138ft 466kts
25-Nov-18 11:44 35.476223 -120.027154 163 33133ft 466kts
25-Nov-18 11:45 35.353634 -119.975257 164 33124ft 463kts
25-Nov-18 11:46 35.231954 -119.923909 164 33125ft 460kts
25-Nov-18 11:47 35.111943 -119.870190 155 33106ft 463kts
25-Nov-18 11:48 35.011921 -119.769303 137 33108ft 470kts
25-Nov-18 11:49 34.919007 -119.657429 138 33108ft 470kts
25-Nov-18 11:50 34.825797 -119.545626 138 33111ft 469kts
25-Nov-18 11:51 34.732906 -119.434953 138 33114ft 469kts
25-Nov-18 11:52 34.639944 -119.324846 138 31265ft 463kts
25-Nov-18 11:53 34.549463 -119.216230 137 29132ft 450kts
25-Nov-18 11:54 34.460522 -119.111092 138 26819ft 447kts
25-Nov-18 11:55 34.372391 -119.009144 138 25005ft 425kts
25-Nov-18 11:56 34.287484 -118.912309 138 23093ft 414kts
25-Nov-18 11:57 34.196504 -118.832887 160 21284ft 396kts
25-Nov-18 11:58 34.093450 -118.792189 164 19442ft 381kts
25-Nov-18 11:59 33.993465 -118.753367 164 17228ft 375kts
25-Nov-18 12:00 33.895325 -118.715426 163 15517ft 365kts
25-Nov-18 12:01 33.799945 -118.678629 163 13902ft 355kts
25-Nov-18 12:02 33.707078 -118.643991 164 12396ft 344kts
25-Nov-18 12:03 33.616654 -118.611689 158 11004ft 333kts
25-Nov-18 12:04 33.557129 -118.533332 120 10036ft 303kts
25-Nov-18 12:05 33.522291 -118.448999 97 8798ft 278kts
25-Nov-18 12:06 33.518826 -118.357940 91 7406ft 268kts
25-Nov-18 12:07 33.536848 -118.272921 69 6248ft 262kts
25-Nov-18 12:08 33.562926 -118.192310 69 5193ft 257kts
25-Nov-18 12:09 33.599509 -118.119923 56 5002ft 253kts
25-Nov-18 12:10 33.638236 -118.051118 56 4978ft 246kts
25-Nov-18 12:11 33.674109 -117.986606 56 4498ft 222kts
25-Nov-18 12:12 33.715067 -117.934059 30 3557ft 208kts
25-Nov-18 12:13 33.760630 -117.905401 27 2882ft 178kts
25-Nov-18 12:14 33.803443 -117.878333 27 2487ft 177kts
25-Nov-18 12:15 33.839302 -117.843917 88 2057ft 172kts
25-Nov-18 12:16 33.811576 -117.798528 157 1977ft 169kts
25-Nov-18 12:17 33.767897 -117.810324 207 1927ft 168kts
25-Nov-18 12:18 33.726917 -117.836363 207 1076ft 159kts
25-Nov-18 12:19 33.689320 -117.860206 207 245ft 149kts
25-Nov-18 12:20 33.669314 -117.871848 133 64ft 16kts
25-Nov-18 12:21 33.671659 -117.868424 30 64ft 15kts
25-Nov-18 12:22 33.675189 -117.865798 27 64ft 15kts
25-Nov-18 12:23 33.677689 -117.863815 125 64ft 2kts
25-Nov-18 12:24 33.677530 -117.863467 117 64ft 0kts
25-Nov-18 12:25 33.677530 -117.863467 117 64ft 0kts

Navigation Log

Ident Type
Flight plan parsing failed, navigation log unavailable